Bookmark and Share
Track history (hours):
 

F/V Le Natif 2

Last reported at 2014-Apr-20 21:31 UTC. Time now 2014-Apr-21 12:23 UTC.
Position N 46°41' W 002°13'.

Length 16 m.

Type: Fishing. MMSI: 228131600.

NotesDate/timePositionNaut miles runAvg speedWind from/ knotsBaromVisibWave heightAir tempDewpointWater temp
2014-Apr-20 21:31N 46°41' W 002°13'8 8.4
2014-Apr-20 20:33N 46°41' W 002°01'  
2014-Apr-18 10:04N 46°42' W 001°56'0 0.0
2014-Apr-18 09:30N 46°42' W 001°56'0 0.0
2014-Apr-18 08:33N 46°42' W 001°56'0 0.0
2014-Apr-18 07:20N 46°42' W 001°56'0 0.0
2014-Apr-18 06:33N 46°42' W 001°56'0 0.0
2014-Apr-18 05:27N 46°42' W 001°56'0 0.0
2014-Apr-18 04:11N 46°42' W 001°56'0 0.1
2014-Apr-18 03:33N 46°42' W 001°56'4 3.9
2014-Apr-18 02:34N 46°41' W 002°02'9 9.1
2014-Apr-18 01:33N 46°41' W 002°15'9 9.1
2014-Apr-18 00:32N 46°41' W 002°29'5 4.0
2014-Apr-17 23:15N 46°41' W 002°36'3 3.8
2014-Apr-17 22:33N 46°43' W 002°38'4 3.4
2014-Apr-17 21:26N 46°47' W 002°38'3 3.2
2014-Apr-17 20:33N 46°45' W 002°36'4 3.6
2014-Apr-17 19:34N 46°41' W 002°35'2 0.2
2014-Apr-17 08:33N 46°44' W 002°35'4 3.4
2014-Apr-17 07:31N 46°40' W 002°34'4 4.0
2014-Apr-17 06:32N 46°43' W 002°37'4 1.8
2014-Apr-17 04:30N 46°47' W 002°37'4 3.8
2014-Apr-17 03:28N 46°44' W 002°34'3 3.3
2014-Apr-17 02:33N 46°41' W 002°32'  
2014-Apr-13 04:13N 46°43' W 002°08'6 8.8
2014-Apr-13 03:33N 46°41' W 001°60'2 0.1
2014-Apr-11 10:33N 46°42' W 001°56'3 2.9
2014-Apr-11 09:33N 46°41' W 002°00'3 0.7
2014-Apr-11 05:03N 46°42' W 001°56'0 0.0
2014-Apr-11 03:33N 46°42' W 001°56'0 0.0
2014-Apr-11 02:27N 46°42' W 001°56'2 2.6
2014-Apr-11 01:33N 46°41' W 001°60'10 9.2
2014-Apr-11 00:31N 46°44' W 002°13'  

Dump ship's entire track history

sailing weather and tide predictions

F/V Le Natif 2 — FKVW — position and weather